Time,TemperatureF,DewpointF,PressureIn,WindDirection,WindDirectionDegrees,WindSpeedMPH,WindSpeedGustMPH,Humidity,HourlyPrecipIn,Conditions,Clouds,dailyrainin,SoftwareType,DateUTC
2013-11-16 00:10:00,76.5,60.6,30.05,NE,45,1.7,-999.0,58,-99.99,,,0.00,Acu-Link.com,2013-11-16 05:10:00,
2013-11-16 00:25:00,76.5,61.1,30.04,ESE,112,2.2,-999.0,59,-99.99,,,0.00,Acu-Link.com,2013-11-16 05:25:00,
2013-11-16 00:40:00,76.6,61.2,30.04,South,180,1.1,-999.0,59,-99.99,,,0.00,Acu-Link.com,2013-11-16 05:40:00,
2013-11-16 00:55:00,76.6,61.2,30.04,ENE,67,2.2,-999.0,59,-99.99,,,0.00,Acu-Link.com,2013-11-16 05:55:00,
2013-11-16 01:10:00,76.6,61.7,30.02,ENE,67,1.7,-999.0,60,-99.99,,,0.00,Acu-Link.com,2013-11-16 06:10:00,
2013-11-16 01:26:00,76.6,61.7,30.02,South,180,5.3,-999.0,60,-99.99,,,0.00,Acu-Link.com,2013-11-16 06:26:00,
2013-11-16 01:41:00,76.6,61.7,30.02,SE,135,1.7,-999.0,60,-99.99,,,0.00,Acu-Link.com,2013-11-16 06:41:00,
2013-11-16 01:56:00,76.6,61.7,30.03,NE,45,2.7,-999.0,60,-99.99,,,0.00,Acu-Link.com,2013-11-16 06:56:00,
2013-11-16 02:11:00,76.6,61.7,30.03,ESE,112,2.2,-999.0,60,-99.99,,,0.00,Acu-Link.com,2013-11-16 07:11:00,
2013-11-16 02:26:00,76.6,61.7,30.02,ESE,112,2.2,-999.0,60,-99.99,,,0.00,Acu-Link.com,2013-11-16 07:26:00,
2013-11-16 02:41:00,76.6,61.7,30.03,SE,135,2.7,-999.0,60,-99.99,,,0.00,Acu-Link.com,2013-11-16 07:41:00,
2013-11-16 02:56:00,76.6,61.7,30.02,SSE,157,2.2,-999.0,60,-99.99,,,0.00,Acu-Link.com,2013-11-16 07:56:00,
2013-11-16 03:11:00,76.6,61.2,30.02,ESE,112,1.1,-999.0,59,-99.99,,,0.00,Acu-Link.com,2013-11-16 08:11:00,
2013-11-16 03:26:00,76.6,61.2,30.02,ESE,112,1.7,-999.0,59,-99.99,,,0.00,Acu-Link.com,2013-11-16 08:26:00,
2013-11-16 03:41:00,76.8,59.9,30.02,ENE,67,1.1,-999.0,56,-99.99,,,0.00,Acu-Link.com,2013-11-16 08:41:00,
2013-11-16 03:57:00,77.4,60.5,30.01,South,180,4.2,-999.0,56,-99.99,,,0.00,Acu-Link.com,2013-11-16 08:57:00,
2013-11-16 04:12:00,77.2,61.3,30.01,SE,135,3.2,-999.0,58,-99.99,,,0.00,Acu-Link.com,2013-11-16 09:12:00,
2013-11-16 04:27:00,77.4,61.0,30.00,South,180,1.7,-999.0,57,-99.99,,,0.00,Acu-Link.com,2013-11-16 09:27:00,
2013-11-16 04:42:00,77.4,61.0,30.00,ESE,112,2.7,-999.0,57,-99.99,,,0.00,Acu-Link.com,2013-11-16 09:42:00,
2013-11-16 04:57:00,77.2,60.8,30.00,South,180,2.2,-999.0,57,-99.99,,,0.00,Acu-Link.com,2013-11-16 09:57:00,
2013-11-16 05:12:00,77.2,61.3,30.00,East,90,2.7,-999.0,58,-99.99,,,0.00,Acu-Link.com,2013-11-16 10:12:00,
2013-11-16 05:28:00,77.2,61.7,30.00,East,90,3.7,-999.0,59,-99.99,,,0.00,Acu-Link.com,2013-11-16 10:28:00,
2013-11-16 05:43:00,77.2,61.7,30.01,ESE,112,3.7,-999.0,59,-99.99,,,0.00,Acu-Link.com,2013-11-16 10:43:00,
2013-11-16 05:58:00,77.2,62.2,30.02,SSE,157,2.2,-999.0,60,-99.99,,,0.00,Acu-Link.com,2013-11-16 10:58:00,
2013-11-16 06:13:00,77.0,62.0,30.02,NNE,22,2.7,-999.0,60,-99.99,,,0.00,Acu-Link.com,2013-11-16 11:13:00,
2013-11-16 06:28:00,76.6,62.6,30.02,SE,135,2.2,-999.0,62,-99.99,,,0.00,Acu-Link.com,2013-11-16 11:28:00,
2013-11-16 06:43:00,76.8,62.8,30.03,ESE,112,2.2,-999.0,62,-99.99,,,0.00,Acu-Link.com,2013-11-16 11:43:00,
2013-11-16 06:58:00,76.8,62.8,30.03,East,90,2.7,-999.0,62,-99.99,,,0.00,Acu-Link.com,2013-11-16 11:58:00,
2013-11-16 07:13:00,77.0,63.0,30.04,East,90,1.7,-999.0,62,-99.99,,,0.00,Acu-Link.com,2013-11-16 12:13:00,
2013-11-16 07:28:00,77.2,62.7,30.04,East,90,1.7,-999.0,61,-99.99,,,0.00,Acu-Link.com,2013-11-16 12:28:00,
2013-11-16 07:44:00,77.5,63.0,30.04,ENE,67,1.7,-999.0,61,-99.99,,,0.00,Acu-Link.com,2013-11-16 12:44:00,
2013-11-16 07:59:00,77.5,62.5,30.05,SSE,157,3.2,-999.0,60,-99.99,,,0.00,Acu-Link.com,2013-11-16 12:59:00,
2013-11-16 08:14:00,77.9,62.9,30.05,ESE,112,2.2,-999.0,60,-99.99,,,0.00,Acu-Link.com,2013-11-16 13:14:00,
2013-11-16 08:29:00,78.1,63.1,30.06,SSE,157,2.2,-999.0,60,-99.99,,,0.00,Acu-Link.com,2013-11-16 13:29:00,
2013-11-16 08:44:00,78.1,63.1,30.06,South,180,1.7,-999.0,60,-99.99,,,0.00,Acu-Link.com,2013-11-16 13:44:00,
2013-11-16 08:59:00,78.6,63.5,30.06,ESE,112,2.2,-999.0,60,-99.99,,,0.00,Acu-Link.com,2013-11-16 13:59:00,
2013-11-16 09:14:00,79.3,63.7,30.07,NE,45,2.7,-999.0,59,-99.99,,,0.00,Acu-Link.com,2013-11-16 14:14:00,
2013-11-16 09:29:00,79.5,63.9,30.07,ESE,112,2.2,-999.0,59,-99.99,,,0.00,Acu-Link.com,2013-11-16 14:29:00,
2013-11-16 09:44:00,79.7,63.6,30.07,ESE,112,2.2,-999.0,58,-99.99,,,0.00,Acu-Link.com,2013-11-16 14:44:00,
2013-11-16 10:00:00,79.7,63.6,30.07,South,180,2.2,-999.0,58,-99.99,,,0.00,Acu-Link.com,2013-11-16 15:00:00,
2013-11-16 10:15:00,79.9,62.8,30.08,ESE,112,3.2,-999.0,56,-99.99,,,0.00,Acu-Link.com,2013-11-16 15:15:00,
2013-11-16 10:30:00,79.9,62.8,30.08,ESE,112,1.7,-999.0,56,-99.99,,,0.00,Acu-Link.com,2013-11-16 15:30:00,
2013-11-16 10:45:00,80.1,63.0,30.07,South,180,1.1,-999.0,56,-99.99,,,0.00,Acu-Link.com,2013-11-16 15:45:00,
2013-11-16 11:00:00,80.4,63.2,30.07,South,180,2.7,-999.0,56,-99.99,,,0.00,Acu-Link.com,2013-11-16 16:00:00,
2013-11-16 11:15:00,80.2,62.5,30.06,ESE,112,4.2,-999.0,55,-99.99,,,0.00,Acu-Link.com,2013-11-16 16:15:00,
2013-11-16 11:30:00,80.2,62.5,30.05,ESE,112,2.2,-999.0,55,-99.99,,,0.00,Acu-Link.com,2013-11-16 16:30:00,
2013-11-16 11:45:00,80.2,62.5,30.04,SSE,157,2.2,-999.0,55,-99.99,,,0.00,Acu-Link.com,2013-11-16 16:45:00,
2013-11-16 12:00:00,80.6,62.9,30.04,South,180,4.7,-999.0,55,-99.99,,,0.00,Acu-Link.com,2013-11-16 17:00:00,
2013-11-16 12:16:00,79.9,62.8,30.04,South,180,3.7,-999.0,56,-99.99,,,0.00,Acu-Link.com,2013-11-16 17:16:00,
2013-11-16 12:31:00,77.7,64.5,30.03,South,180,3.7,-999.0,64,-99.99,,,0.01,Acu-Link.com,2013-11-16 17:31:00,
2013-11-16 12:46:00,75.6,65.5,30.04,SSE,157,0.0,-999.0,71,-99.99,,,0.03,Acu-Link.com,2013-11-16 17:46:00,
2013-11-16 13:01:00,76.1,66.0,30.03,SSE,157,0.0,-999.0,71,-99.99,,,0.07,Acu-Link.com,2013-11-16 18:01:00,
2013-11-16 13:16:00,75.2,66.3,30.03,SSE,157,0.0,-999.0,74,-99.99,,,0.09,Acu-Link.com,2013-11-16 18:16:00,
2013-11-16 13:31:00,73.4,61.8,30.03,NE,45,2.2,-999.0,67,-99.99,,,0.13,Acu-Link.com,2013-11-16 18:31:00,
2013-11-16 13:46:00,72.3,62.4,30.02,NE,45,1.1,-999.0,71,-99.99,,,0.14,Acu-Link.com,2013-11-16 18:46:00,
2013-11-16 14:01:00,72.3,62.8,30.02,NE,45,1.7,-999.0,72,-99.99,,,0.15,Acu-Link.com,2013-11-16 19:01:00,
2013-11-16 14:16:00,71.8,62.3,30.01,NE,45,2.2,-999.0,72,-99.99,,,0.16,Acu-Link.com,2013-11-16 19:16:00,
2013-11-16 14:32:00,72.3,63.5,30.01,NE,45,1.1,-999.0,74,-99.99,,,0.18,Acu-Link.com,2013-11-16 19:32:00,
2013-11-16 14:47:00,72.3,63.1,30.01,NE,45,0.0,-999.0,73,-99.99,,,0.19,Acu-Link.com,2013-11-16 19:47:00,
2013-11-16 15:02:00,72.3,63.5,30.01,NE,45,0.0,-999.0,74,-99.99,,,0.19,Acu-Link.com,2013-11-16 20:02:00,
2013-11-16 15:17:00,72.3,63.9,30.01,NE,45,0.0,-999.0,75,-99.99,,,0.19,Acu-Link.com,2013-11-16 20:17:00,
2013-11-16 15:32:00,72.9,64.5,30.01,NE,45,0.0,-999.0,75,-99.99,,,0.19,Acu-Link.com,2013-11-16 20:32:00,
2013-11-16 15:47:00,73.0,64.2,30.01,NE,45,2.2,-999.0,74,-99.99,,,0.19,Acu-Link.com,2013-11-16 20:47:00,
2013-11-16 16:02:00,73.4,65.0,30.01,NE,45,0.0,-999.0,75,-99.99,,,0.19,Acu-Link.com,2013-11-16 21:02:00,
2013-11-16 16:17:00,73.4,65.4,30.02,NE,45,0.0,-999.0,76,-99.99,,,0.19,Acu-Link.com,2013-11-16 21:17:00,
2013-11-16 16:32:00,73.4,65.4,30.02,NE,45,0.0,-999.0,76,-99.99,,,0.19,Acu-Link.com,2013-11-16 21:32:00,
2013-11-16 16:47:00,73.4,66.1,30.02,NE,45,0.0,-999.0,78,-99.99,,,0.19,Acu-Link.com,2013-11-16 21:47:00,
2013-11-16 17:03:00,73.2,66.6,30.02,NE,45,1.7,-999.0,80,-99.99,,,0.19,Acu-Link.com,2013-11-16 22:03:00,
2013-11-16 17:18:00,73.0,66.5,30.02,NNE,22,1.7,-999.0,80,-99.99,,,0.19,Acu-Link.com,2013-11-16 22:18:00,
2013-11-16 17:33:00,72.9,67.1,30.02,NNE,22,2.2,-999.0,82,-99.99,,,0.19,Acu-Link.com,2013-11-16 22:33:00,
2013-11-16 17:48:00,72.9,67.4,30.02,NNE,22,0.0,-999.0,83,-99.99,,,0.19,Acu-Link.com,2013-11-16 22:48:00,
2013-11-16 18:03:00,72.9,67.8,30.03,NNE,22,0.0,-999.0,84,-99.99,,,0.19,Acu-Link.com,2013-11-16 23:03:00,
2013-11-16 18:18:00,72.9,67.8,30.03,NNE,22,1.7,-999.0,84,-99.99,,,0.19,Acu-Link.com,2013-11-16 23:18:00,
2013-11-16 18:33:00,73.0,67.9,30.03,NNE,22,1.1,-999.0,84,-99.99,,,0.19,Acu-Link.com,2013-11-16 23:33:00,
2013-11-16 18:48:00,73.0,67.9,30.03,NNE,22,0.0,-999.0,84,-99.99,,,0.19,Acu-Link.com,2013-11-16 23:48:00,
2013-11-16 19:04:00,72.9,67.8,30.03,NNE,22,0.0,-999.0,84,-99.99,,,0.19,Acu-Link.com,2013-11-17 00:04:00,
2013-11-16 19:19:00,72.7,67.6,30.04,NNE,22,0.0,-999.0,84,-99.99,,,0.19,Acu-Link.com,2013-11-17 00:19:00,
2013-11-16 19:34:00,72.7,67.6,30.05,NNE,22,0.0,-999.0,84,-99.99,,,0.19,Acu-Link.com,2013-11-17 00:34:00,
2013-11-16 19:49:00,72.7,67.6,30.05,NNE,22,0.0,-999.0,84,-99.99,,,0.19,Acu-Link.com,2013-11-17 00:49:00,
2013-11-16 20:05:00,73.0,67.2,30.06,NNE,22,0.0,-999.0,82,-99.99,,,0.19,Acu-Link.com,2013-11-17 01:05:00,
2013-11-16 20:20:00,73.8,67.2,30.06,NNE,22,2.2,-999.0,80,-99.99,,,0.19,Acu-Link.com,2013-11-17 01:20:00,
2013-11-16 20:35:00,74.1,66.8,30.06,NNE,22,0.0,-999.0,78,-99.99,,,0.19,Acu-Link.com,2013-11-17 01:35:00,
2013-11-16 20:50:00,74.1,66.8,30.07,NE,45,2.2,-999.0,78,-99.99,,,0.19,Acu-Link.com,2013-11-17 01:50:00,
2013-11-16 21:06:00,74.1,66.4,30.06,NNE,22,1.7,-999.0,77,-99.99,,,0.19,Acu-Link.com,2013-11-17 02:06:00,
2013-11-16 21:21:00,74.1,66.4,30.06,NE,45,0.0,-999.0,77,-99.99,,,0.19,Acu-Link.com,2013-11-17 02:21:00,
2013-11-16 21:36:00,73.9,66.2,30.06,NNE,22,2.2,-999.0,77,-99.99,,,0.19,Acu-Link.com,2013-11-17 02:36:00,
2013-11-16 21:51:00,73.9,66.2,30.07,NNE,22,0.0,-999.0,77,-99.99,,,0.19,Acu-Link.com,2013-11-17 02:51:00,
2013-11-16 22:07:00,73.9,66.6,30.06,NNE,22,0.0,-999.0,78,-99.99,,,0.19,Acu-Link.com,2013-11-17 03:07:00,
2013-11-16 22:22:00,74.1,66.8,30.05,NNE,22,0.0,-999.0,78,-99.99,,,0.19,Acu-Link.com,2013-11-17 03:22:00,
2013-11-16 22:37:00,74.7,67.4,30.06,NE,45,0.0,-999.0,78,-99.99,,,0.19,Acu-Link.com,2013-11-17 03:37:00,
2013-11-16 22:52:00,74.7,67.4,30.05,ENE,67,1.7,-999.0,78,-99.99,,,0.19,Acu-Link.com,2013-11-17 03:52:00,
2013-11-16 23:07:00,75.4,68.0,30.05,ENE,67,2.2,-999.0,78,-99.99,,,0.19,Acu-Link.com,2013-11-17 04:07:00,
2013-11-16 23:22:00,75.7,68.3,30.04,NE,45,3.7,-999.0,78,-99.99,,,0.19,Acu-Link.com,2013-11-17 04:22:00,
2013-11-16 23:37:00,75.9,68.2,30.04,SE,135,1.7,-999.0,77,-99.99,,,0.19,Acu-Link.com,2013-11-17 04:37:00,
2013-11-16 23:52:00,75.9,68.2,30.04,ENE,67,2.2,-999.0,77,-99.99,,,0.19,Acu-Link.com,2013-11-17 04:52:00,